Time;durP1;ratioP1;P1;durP2;ratioP2;P2;SDS_P1;SDS_P2;PMS_P1;PMS_P2;Temp;Humidity;BMP_temperature;BMP_pressure;BME280_temperature;BME280_humidity;BME280_pressure;Samples;Min_cycle;Max_cycle;Signal;HPM_P1;HPM_P2
2023/11/05 00:02:01;;;;;;;2.20;1.40;;;10.40;99.90;;;;;;5094390;28;20294;-66
2023/11/05 00:04:28;;;;;;;1.57;1.30;;;10.40;99.90;;;;;;5099679;28;20217;-66
2023/11/05 00:06:55;;;;;;;0.80;0.80;;;10.40;99.90;;;;;;5106039;28;20328;-66
2023/11/05 00:09:22;;;;;;;1.10;1.00;;;10.40;99.90;;;;;;5105508;28;20684;-68
2023/11/05 00:11:49;;;;;;;2.43;1.30;;;10.40;99.90;;;;;;5105692;28;20202;-66
2023/11/05 00:14:16;;;;;;;0.90;0.90;;;10.40;99.90;;;;;;5105500;28;20248;-66
2023/11/05 00:16:44;;;;;;;1.77;1.00;;;10.40;99.90;;;;;;5105121;28;20313;-66
2023/11/05 00:19:11;;;;;;;1.00;1.00;;;10.40;99.90;;;;;;5102391;28;20274;-66
2023/11/05 00:21:38;;;;;;;1.30;1.20;;;10.40;99.90;;;;;;5089040;28;20309;-66
2023/11/05 00:24:06;;;;;;;3.00;1.00;;;10.40;99.90;;;;;;5097185;28;20710;-67
2023/11/05 00:26:33;;;;;;;2.10;1.20;;;10.40;99.90;;;;;;5099576;28;20218;-67
2023/11/05 00:29:00;;;;;;;1.00;1.00;;;10.40;99.90;;;;;;5084885;28;20206;-67
2023/11/05 00:31:27;;;;;;;0.90;0.90;;;10.50;99.90;;;;;;5084659;28;20301;-67
2023/11/05 00:33:55;;;;;;;1.67;1.20;;;10.40;99.90;;;;;;5089035;28;20330;-67
2023/11/05 00:36:22;;;;;;;2.73;0.83;;;10.50;99.90;;;;;;5103589;28;20214;-67
2023/11/05 00:38:50;;;;;;;2.10;1.00;;;10.50;99.90;;;;;;5104856;28;20874;-67
2023/11/05 00:41:17;;;;;;;1.00;1.00;;;10.50;99.90;;;;;;5105009;28;20202;-67
2023/11/05 00:43:44;;;;;;;0.77;0.77;;;10.50;99.90;;;;;;5093306;28;20248;-67
2023/11/05 00:46:12;;;;;;;1.20;1.00;;;10.50;99.90;;;;;;5084847;28;20206;-67
2023/11/05 00:48:39;;;;;;;1.67;0.83;;;10.50;99.90;;;;;;5084271;28;20211;-67
2023/11/05 00:51:07;;;;;;;0.80;0.80;;;10.50;99.90;;;;;;5084709;28;20224;-67
2023/11/05 00:53:34;;;;;;;1.53;0.70;;;10.50;99.90;;;;;;5084865;28;20226;-67
2023/11/05 00:56:01;;;;;;;1.00;1.00;;;10.50;99.90;;;;;;5088237;28;20194;-67
2023/11/05 00:58:28;;;;;;;0.87;0.87;;;10.50;99.90;;;;;;5088886;28;20301;-67
2023/11/05 01:00:55;;;;;;;1.33;0.83;;;10.50;99.90;;;;;;5088536;28;20713;-67
2023/11/05 01:03:22;;;;;;;1.13;0.67;;;10.50;99.90;;;;;;5094030;28;20728;-67
2023/11/05 01:05:49;;;;;;;0.83;0.83;;;10.50;99.90;;;;;;5109113;28;20634;-67
2023/11/05 01:08:17;;;;;;;1.03;0.93;;;10.50;99.90;;;;;;5109426;28;20206;-67
2023/11/05 01:10:44;;;;;;;0.90;0.90;;;10.50;99.90;;;;;;5109447;28;20216;-67
2023/11/05 01:13:11;;;;;;;0.77;0.70;;;10.60;99.90;;;;;;5109057;28;20396;-67
2023/11/05 01:15:37;;;;;;;0.83;0.60;;;10.60;99.90;;;;;;5108494;28;20210;-67
2023/11/05 01:18:04;;;;;;;0.77;0.77;;;10.60;99.90;;;;;;5097985;28;20289;-66
2023/11/05 01:20:31;;;;;;;0.87;0.80;;;10.60;99.90;;;;;;5088399;28;20941;-67
2023/11/05 01:22:58;;;;;;;0.70;0.70;;;10.60;99.90;;;;;;5088618;28;20213;-67
2023/11/05 01:25:26;;;;;;;0.60;0.60;;;10.60;99.90;;;;;;5088865;28;20207;-67
2023/11/05 01:27:53;;;;;;;0.87;0.87;;;10.60;99.90;;;;;;5098073;28;20365;-67
2023/11/05 01:30:20;;;;;;;0.90;0.90;;;10.60;99.90;;;;;;5109003;28;20212;-66
2023/11/05 01:32:47;;;;;;;0.70;0.70;;;10.60;99.90;;;;;;5089387;28;20621;-67
2023/11/05 01:35:14;;;;;;;0.90;0.90;;;10.70;99.90;;;;;;5088973;28;20214;-67
2023/11/05 01:37:41;;;;;;;0.87;0.87;;;10.70;99.90;;;;;;5089168;28;20206;-66
2023/11/05 01:40:09;;;;;;;1.17;0.77;;;10.70;99.90;;;;;;5101408;28;20308;-67
2023/11/05 01:42:37;;;;;;;3.27;1.20;;;10.70;99.90;;;;;;5109191;28;20305;-67
2023/11/05 01:45:04;;;;;;;0.73;0.73;;;10.70;99.90;;;;;;5108781;28;20216;-66
2023/11/05 01:47:31;;;;;;;0.70;0.70;;;10.70;99.90;;;;;;5095900;28;20204;-66
2023/11/05 01:49:58;;;;;;;0.97;0.67;;;10.70;99.90;;;;;;5089677;28;20199;-66
2023/11/05 01:52:25;;;;;;;1.13;0.90;;;10.70;99.90;;;;;;5108358;28;20206;-66
2023/11/05 01:54:53;;;;;;;1.17;0.60;;;10.70;99.90;;;;;;5108476;28;20226;-66
2023/11/05 01:57:20;;;;;;;0.60;0.60;;;10.60;99.90;;;;;;5108834;28;20234;-66
2023/11/05 01:59:48;;;;;;;1.23;0.60;;;10.60;99.90;;;;;;5108063;28;20234;-66
2023/11/05 02:02:15;;;;;;;0.60;0.60;;;10.60;99.90;;;;;;5095854;28;20302;-66
2023/11/05 02:04:43;;;;;;;0.97;0.77;;;10.60;99.90;;;;;;5088170;28;20234;-66
2023/11/05 02:07:10;;;;;;;0.80;0.70;;;10.50;99.90;;;;;;5087094;28;20207;-66
2023/11/05 02:09:38;;;;;;;1.10;0.83;;;10.50;99.90;;;;;;5088566;28;20362;-67
2023/11/05 02:12:06;;;;;;;0.93;0.80;;;10.50;99.90;;;;;;5096252;28;20209;-67
2023/11/05 02:14:32;;;;;;;1.27;0.73;;;10.40;99.90;;;;;;5108337;28;20226;-66
2023/11/05 02:17:01;;;;;;;0.90;0.90;;;10.40;99.90;;;;;;5108636;28;20202;-66
2023/11/05 02:19:28;;;;;;;0.60;0.60;;;10.40;99.90;;;;;;5108618;28;20238;-67
2023/11/05 02:22:02;;;;;;;1.40;0.70;;;10.30;99.90;;;;;;5107868;28;20310;-67
2023/11/05 02:24:32;;;;;;;1.20;0.70;;;10.30;99.90;;;;;;5108716;28;20204;-66
2023/11/05 02:26:59;;;;;;;1.00;0.90;;;10.30;99.90;;;;;;5107807;28;20222;-66
2023/11/05 02:29:27;;;;;;;0.73;0.73;;;10.20;99.90;;;;;;5108110;28;20301;-66
2023/11/05 02:31:53;;;;;;;1.43;1.00;;;10.20;99.90;;;;;;5108896;28;20202;-67
2023/11/05 02:34:20;;;;;;;1.13;1.07;;;10.20;99.90;;;;;;5107994;28;20605;-67
2023/11/05 02:36:48;;;;;;;3.63;1.40;;;10.20;99.90;;;;;;5102520;28;20297;-67
2023/11/05 02:39:15;;;;;;;1.20;1.10;;;10.10;99.90;;;;;;5106421;28;20660;-67
2023/11/05 02:41:43;;;;;;;2.63;1.03;;;10.10;99.90;;;;;;5108098;28;20296;-67
2023/11/05 02:44:10;;;;;;;3.63;1.27;;;10.00;99.90;;;;;;5105719;28;20317;-67
2023/11/05 02:46:37;;;;;;;1.80;1.03;;;10.00;99.90;;;;;;5107675;28;20206;-67
2023/11/05 02:49:07;;;;;;;1.50;0.70;;;9.90;99.90;;;;;;5107560;28;20328;-67
2023/11/05 02:51:34;;;;;;;0.57;0.57;;;9.90;99.90;;;;;;5108004;28;20251;-67
2023/11/05 02:54:01;;;;;;;3.30;0.90;;;9.80;99.90;;;;;;5096598;28;20609;-67
2023/11/05 02:56:28;;;;;;;1.23;1.13;;;9.80;99.90;;;;;;5087675;28;20230;-67
2023/11/05 02:58:57;;;;;;;1.50;0.77;;;9.80;99.90;;;;;;5087143;28;20213;-67
2023/11/05 03:01:24;;;;;;;1.30;0.97;;;9.80;99.90;;;;;;5087437;28;20293;-67
2023/11/05 03:03:51;;;;;;;0.93;0.90;;;9.80;99.90;;;;;;5086979;28;20905;-66
2023/11/05 03:06:19;;;;;;;5.07;1.07;;;9.80;99.90;;;;;;5101927;28;20228;-67
2023/11/05 03:08:46;;;;;;;1.40;0.93;;;9.80;99.90;;;;;;5107452;28;20214;-67
2023/11/05 03:11:13;;;;;;;0.80;0.80;;;9.80;99.90;;;;;;5107477;28;20570;-66
2023/11/05 03:13:40;;;;;;;1.70;1.20;;;9.80;99.90;;;;;;5107457;27;20251;-66
2023/11/05 03:16:11;;;;;;;1.70;1.07;;;9.80;99.90;;;;;;5106819;28;20295;-67
2023/11/05 03:18:38;;;;;;;1.20;1.20;;;9.80;99.90;;;;;;5106341;28;20263;-67
2023/11/05 03:21:06;;;;;;;1.00;1.00;;;9.70;99.90;;;;;;5107627;28;20317;-67
2023/11/05 03:23:32;;;;;;;1.17;0.77;;;9.80;99.90;;;;;;5095567;28;20322;-67
2023/11/05 03:25:59;;;;;;;1.53;0.90;;;9.70;99.90;;;;;;5086913;28;21008;-67
2023/11/05 03:28:26;;;;;;;0.90;0.90;;;9.70;99.90;;;;;;5089351;28;20306;-67
2023/11/05 03:30:53;;;;;;;2.03;0.83;;;9.70;99.90;;;;;;5107700;28;20206;-67
2023/11/05 03:33:21;;;;;;;1.17;0.80;;;9.70;99.90;;;;;;5089273;28;20218;-67
2023/11/05 03:35:50;;;;;;;3.13;0.90;;;9.80;99.90;;;;;;5088434;28;20214;-67
2023/11/05 03:38:17;;;;;;;1.33;0.90;;;9.70;99.90;;;;;;5087181;28;20211;-67
2023/11/05 03:40:44;;;;;;;1.27;1.00;;;9.70;99.90;;;;;;5105503;28;20310;-67
2023/11/05 03:43:10;;;;;;;0.83;0.80;;;9.70;99.90;;;;;;5107175;28;20297;-69
2023/11/05 03:45:37;;;;;;;1.67;0.90;;;9.70;99.90;;;;;;5106534;28;20217;-66
2023/11/05 03:48:05;;;;;;;1.73;0.80;;;9.80;99.90;;;;;;5086731;28;20207;-66
2023/11/05 03:50:34;;;;;;;1.23;1.00;;;9.70;99.90;;;;;;5086407;28;20275;-66
2023/11/05 03:53:00;;;;;;;4.37;1.23;;;9.70;99.90;;;;;;5086632;28;20206;-66
2023/11/05 03:55:27;;;;;;;1.10;1.00;;;9.70;99.90;;;;;;5086095;28;20234;-66
2023/11/05 03:57:54;;;;;;;1.00;1.00;;;9.70;99.90;;;;;;5086880;28;20206;-66
2023/11/05 04:00:21;;;;;;;1.93;0.97;;;9.80;99.90;;;;;;5085745;28;20321;-67
2023/11/05 04:02:48;;;;;;;1.07;1.07;;;9.80;99.90;;;;;;5085902;28;20211;-66
2023/11/05 04:05:15;;;;;;;2.40;1.00;;;9.70;99.90;;;;;;5099730;28;20202;-66
2023/11/05 04:07:43;;;;;;;1.63;0.93;;;9.80;99.90;;;;;;5106178;28;20216;-66
2023/11/05 04:10:11;;;;;;;0.80;0.80;;;9.70;99.90;;;;;;5099820;28;20290;-67
2023/11/05 04:12:38;;;;;;;0.70;0.70;;;9.70;99.90;;;;;;5085879;28;20722;-66
2023/11/05 04:15:06;;;;;;;1.90;0.87;;;9.70;99.90;;;;;;5086074;28;20238;-66
2023/11/05 04:17:33;;;;;;;1.00;1.00;;;9.70;99.90;;;;;;5085672;28;20206;-66
2023/11/05 04:20:00;;;;;;;0.77;0.77;;;9.80;99.90;;;;;;5094127;28;20213;-65
2023/11/05 04:22:27;;;;;;;2.03;0.80;;;9.80;99.90;;;;;;5101689;28;20293;-66
2023/11/05 04:24:56;;;;;;;1.40;1.07;;;9.80;99.90;;;;;;5105862;28;20304;-65
2023/11/05 04:27:23;;;;;;;0.73;0.73;;;9.80;99.90;;;;;;5092914;28;20231;-65
2023/11/05 04:29:49;;;;;;;0.80;0.80;;;9.80;99.90;;;;;;5084458;28;20996;-66
2023/11/05 04:32:17;;;;;;;0.83;0.83;;;9.80;99.90;;;;;;5085378;28;20233;-65
2023/11/05 04:34:45;;;;;;;1.97;0.90;;;9.80;99.90;;;;;;5091979;28;20237;-65
2023/11/05 04:37:12;;;;;;;1.70;0.93;;;9.80;99.90;;;;;;5105848;28;20214;-65
2023/11/05 04:39:42;;;;;;;0.60;0.60;;;9.80;99.90;;;;;;5105508;28;20257;-66
2023/11/05 04:42:10;;;;;;;0.70;0.70;;;9.80;99.90;;;;;;5106132;28;20218;-65
2023/11/05 04:44:37;;;;;;;0.93;0.80;;;9.80;99.90;;;;;;5105422;28;20310;-65
2023/11/05 04:47:05;;;;;;;1.27;0.70;;;9.80;99.90;;;;;;5105139;28;20226;-65
2023/11/05 04:49:32;;;;;;;1.30;0.60;;;9.80;99.90;;;;;;5105692;28;20213;-65
2023/11/05 04:51:59;;;;;;;1.03;0.80;;;9.80;99.90;;;;;;5105892;28;20340;-66
2023/11/05 04:54:25;;;;;;;1.47;0.70;;;9.80;99.90;;;;;;5105376;28;20225;-65
2023/11/05 04:56:52;;;;;;;1.20;1.10;;;9.80;99.90;;;;;;5105215;28;20213;-66
2023/11/05 04:59:21;;;;;;;1.30;0.90;;;9.80;99.90;;;;;;5084935;28;20385;-66
2023/11/05 05:01:47;;;;;;;1.07;0.80;;;9.80;99.90;;;;;;5100374;28;20202;-66
2023/11/05 05:04:14;;;;;;;0.70;0.60;;;9.80;99.90;;;;;;5099326;28;20301;-66
2023/11/05 05:06:41;;;;;;;0.80;0.80;;;9.80;99.90;;;;;;5104543;28;20210;-66
2023/11/05 05:09:09;;;;;;;1.33;0.83;;;9.80;99.90;;;;;;5102674;28;20206;-67
2023/11/05 05:11:36;;;;;;;0.50;0.50;;;9.80;99.90;;;;;;5084817;28;20213;-66
2023/11/05 05:14:03;;;;;;;0.73;0.73;;;9.80;99.90;;;;;;5085003;28;20321;-66
2023/11/05 05:16:33;;;;;;;1.10;0.57;;;9.80;99.90;;;;;;5093815;28;20205;-66
2023/11/05 05:19:00;;;;;;;0.77;0.77;;;9.70;99.90;;;;;;5102902;28;20229;-66
2023/11/05 05:21:27;;;;;;;0.70;0.60;;;9.80;99.90;;;;;;5104400;28;20190;-66
2023/11/05 05:23:55;;;;;;;0.77;0.60;;;9.80;99.90;;;;;;5105196;28;20221;-66
2023/11/05 05:26:24;;;;;;;0.93;0.60;;;9.80;99.90;;;;;;5100102;28;20218;-66
2023/11/05 05:28:51;;;;;;;0.53;0.53;;;9.80;99.90;;;;;;5084695;28;20203;-66
2023/11/05 05:31:18;;;;;;;0.80;0.80;;;9.70;99.90;;;;;;5087331;28;20202;-65
2023/11/05 05:33:47;;;;;;;0.70;0.70;;;9.80;99.90;;;;;;5096987;28;20207;-66
2023/11/05 05:36:14;;;;;;;1.20;0.70;;;9.80;99.90;;;;;;5084777;28;20231;-66
2023/11/05 05:38:42;;;;;;;0.50;0.50;;;9.80;99.90;;;;;;5084603;28;20610;-66
2023/11/05 05:41:09;;;;;;;0.50;0.50;;;9.80;99.90;;;;;;5090541;28;20217;-66
2023/11/05 05:43:37;;;;;;;0.50;0.50;;;9.80;99.90;;;;;;5088418;28;20306;-65
2023/11/05 05:46:04;;;;;;;0.60;0.60;;;9.80;99.90;;;;;;5088905;28;20229;-65
2023/11/05 05:48:31;;;;;;;0.40;0.40;;;9.80;99.90;;;;;;5088370;28;20306;-65
2023/11/05 05:50:59;;;;;;;0.70;0.70;;;9.80;99.90;;;;;;5088347;28;20210;-65
2023/11/05 05:53:26;;;;;;;0.70;0.70;;;9.80;99.90;;;;;;5088581;28;20361;-65
2023/11/05 05:55:54;;;;;;;1.07;0.60;;;9.80;99.90;;;;;;5088325;28;20706;-65
2023/11/05 05:58:21;;;;;;;0.63;0.60;;;9.70;99.90;;;;;;5105577;28;20723;-66
2023/11/05 06:00:48;;;;;;;4.37;0.73;;;9.70;99.90;;;;;;5107951;28;20237;-66
2023/11/05 06:03:15;;;;;;;0.70;0.70;;;9.70;99.90;;;;;;5108721;28;20210;-65
2023/11/05 06:05:43;;;;;;;0.50;0.50;;;9.80;99.90;;;;;;5108386;28;20212;-65
2023/11/05 06:08:12;;;;;;;2.23;0.77;;;9.70;99.90;;;;;;5108575;28;20713;-65
2023/11/05 06:10:38;;;;;;;0.30;0.30;;;9.80;99.90;;;;;;5094605;28;20606;-66
2023/11/05 06:13:05;;;;;;;1.10;0.40;;;9.80;99.90;;;;;;5089977;28;20205;-66
2023/11/05 06:15:32;;;;;;;1.03;0.60;;;9.80;99.90;;;;;;5087759;28;20234;-66
2023/11/05 06:17:59;;;;;;;0.63;0.40;;;9.70;99.90;;;;;;5087981;28;20246;-66
2023/11/05 06:20:26;;;;;;;0.70;0.70;;;9.80;99.90;;;;;;5088094;28;20213;-66
2023/11/05 06:22:54;;;;;;;1.03;0.73;;;9.80;99.90;;;;;;5104881;28;20210;-66
2023/11/05 06:25:22;;;;;;;0.50;0.43;;;9.80;99.90;;;;;;5108125;28;20202;-66
2023/11/05 06:27:50;;;;;;;0.50;0.50;;;9.70;99.90;;;;;;5098002;28;20301;-66
2023/11/05 06:30:17;;;;;;;0.73;0.53;;;9.80;99.90;;;;;;5108281;28;20293;-66
2023/11/05 06:32:44;;;;;;;0.67;0.67;;;9.80;99.90;;;;;;5107396;28;20297;-67
2023/11/05 06:35:14;;;;;;;0.80;0.43;;;9.80;99.90;;;;;;5087590;28;20237;-65
2023/11/05 06:37:41;;;;;;;0.60;0.60;;;9.80;99.90;;;;;;5087354;28;20887;-65
2023/11/05 06:40:08;;;;;;;0.40;0.40;;;9.80;99.90;;;;;;5087394;28;21001;-65
2023/11/05 06:42:37;;;;;;;0.70;0.50;;;9.80;99.90;;;;;;5087279;28;20736;-66
2023/11/05 06:45:04;;;;;;;1.47;0.50;;;9.80;99.90;;;;;;5087760;28;20285;-65
2023/11/05 06:47:31;;;;;;;0.47;0.47;;;9.80;99.90;;;;;;5086963;28;20286;-65
2023/11/05 06:49:59;;;;;;;0.93;0.50;;;9.90;99.90;;;;;;5087852;28;20298;-66
2023/11/05 06:52:26;;;;;;;0.87;0.87;;;9.90;99.90;;;;;;5087083;28;20256;-66
2023/11/05 06:54:53;;;;;;;1.23;0.57;;;9.90;99.90;;;;;;5107307;28;20226;-67
2023/11/05 06:57:20;;;;;;;0.47;0.47;;;10.00;99.90;;;;;;5093305;28;20194;-65
2023/11/05 06:59:48;;;;;;;0.97;0.47;;;10.00;99.90;;;;;;5107454;27;20330;-66
2023/11/05 07:02:15;;;;;;;0.33;0.33;;;10.00;99.90;;;;;;5107500;28;20210;-66
2023/11/05 07:04:42;;;;;;;0.60;0.60;;;10.10;99.90;;;;;;5107515;28;20304;-65
2023/11/05 07:07:09;;;;;;;1.23;0.60;;;10.10;99.90;;;;;;5107699;28;20254;-66
2023/11/05 07:09:37;;;;;;;1.63;0.40;;;10.10;99.90;;;;;;5094447;28;20210;-66
2023/11/05 07:12:04;;;;;;;0.30;0.30;;;10.10;99.90;;;;;;5086778;28;20735;-66
2023/11/05 07:14:31;;;;;;;1.27;0.57;;;10.20;99.90;;;;;;5086708;28;20206;-66
2023/11/05 07:17:00;;;;;;;0.47;0.47;;;10.20;99.90;;;;;;5093524;28;20289;-65
2023/11/05 07:19:26;;;;;;;0.57;0.50;;;10.10;99.90;;;;;;5088815;28;20290;-66
2023/11/05 07:21:53;;;;;;;0.30;0.30;;;10.20;99.90;;;;;;5087187;28;20330;-66
2023/11/05 07:24:20;;;;;;;0.47;0.40;;;10.20;99.90;;;;;;5100158;28;20647;-66
2023/11/05 07:26:47;;;;;;;0.50;0.50;;;10.20;99.90;;;;;;5098963;28;20226;-66
2023/11/05 07:29:16;;;;;;;0.60;0.60;;;10.20;99.90;;;;;;5095921;28;20204;-66
2023/11/05 07:31:43;;;;;;;1.43;0.70;;;10.20;99.90;;;;;;5099815;28;20206;-66
2023/11/05 07:34:11;;;;;;;0.73;0.43;;;10.20;99.90;;;;;;5099872;28;20212;-65
2023/11/05 07:36:38;;;;;;;0.40;0.40;;;10.20;99.90;;;;;;5106508;28;20241;-65
2023/11/05 07:39:07;;;;;;;0.77;0.60;;;10.20;99.90;;;;;;5106426;28;20206;-65
2023/11/05 07:41:33;;;;;;;1.03;0.50;;;10.30;99.90;;;;;;5106696;28;20296;-65
2023/11/05 07:44:00;;;;;;;0.50;0.50;;;10.30;99.90;;;;;;5106850;28;20637;-66
2023/11/05 07:46:27;;;;;;;0.40;0.40;;;10.30;99.90;;;;;;5106435;28;20285;-66
2023/11/05 07:48:54;;;;;;;1.63;0.43;;;10.40;99.90;;;;;;5106454;28;20209;-66
2023/11/05 07:51:23;;;;;;;2.60;0.50;;;10.30;99.90;;;;;;5104187;28;20205;-66
2023/11/05 07:53:50;;;;;;;0.40;0.40;;;10.40;99.90;;;;;;5085945;28;20207;-66
2023/11/05 07:56:17;;;;;;;0.60;0.40;;;10.30;99.90;;;;;;5086271;28;20687;-66
2023/11/05 07:58:44;;;;;;;0.57;0.33;;;10.40;99.90;;;;;;5101789;28;20214;-66
2023/11/05 08:01:12;;;;;;;0.57;0.47;;;10.40;99.90;;;;;;5106696;28;20206;-66
2023/11/05 08:03:40;;;;;;;1.70;0.43;;;10.50;99.90;;;;;;5099276;28;20217;-66
2023/11/05 08:06:07;;;;;;;0.60;0.60;;;10.50;99.90;;;;;;5087849;28;20601;-66
2023/11/05 08:08:35;;;;;;;5.90;0.80;;;10.50;99.90;;;;;;5086467;28;20213;-66
2023/11/05 08:11:03;;;;;;;1.03;0.37;;;10.50;99.90;;;;;;5086187;28;20241;-66
2023/11/05 08:13:30;;;;;;;0.60;0.40;;;10.50;99.90;;;;;;5085559;28;20322;-66
2023/11/05 08:15:58;;;;;;;0.30;0.30;;;10.50;99.90;;;;;;5085485;28;20233;-66
2023/11/05 08:18:25;;;;;;;0.33;0.30;;;10.60;99.90;;;;;;5085108;28;20737;-66
2023/11/05 08:20:53;;;;;;;0.40;0.40;;;10.60;99.90;;;;;;5094714;28;20206;-65
2023/11/05 08:23:20;;;;;;;0.33;0.33;;;10.60;99.90;;;;;;5085507;28;20294;-66
2023/11/05 08:25:48;;;;;;;0.60;0.60;;;10.60;99.90;;;;;;5085096;28;20733;-65
2023/11/05 08:28:15;;;;;;;0.40;0.40;;;10.50;99.90;;;;;;5085036;28;20218;-65
2023/11/05 08:30:42;;;;;;;0.47;0.40;;;10.60;99.90;;;;;;5085252;28;20207;-66
2023/11/05 08:33:09;;;;;;;0.50;0.50;;;10.60;99.90;;;;;;5089641;28;20198;-66
2023/11/05 08:35:36;;;;;;;0.80;0.67;;;10.60;99.90;;;;;;5086614;27;20223;-66
2023/11/05 08:38:03;;;;;;;0.93;0.30;;;10.60;99.90;;;;;;5085203;28;20319;-66
2023/11/05 08:40:30;;;;;;;0.40;0.40;;;10.60;99.90;;;;;;5085094;28;20321;-65
2023/11/05 08:42:58;;;;;;;0.60;0.60;;;10.60;99.90;;;;;;5097454;28;20686;-66
2023/11/05 08:45:25;;;;;;;0.83;0.60;;;10.60;99.90;;;;;;5101906;28;20329;-66
2023/11/05 08:47:52;;;;;;;0.57;0.57;;;10.60;99.90;;;;;;5085520;28;20226;-65
2023/11/05 08:50:24;;;;;;;0.97;0.73;;;10.60;99.90;;;;;;5085420;28;20659;-66
2023/11/05 08:52:51;;;;;;;0.60;0.60;;;10.60;99.90;;;;;;5085422;28;20256;-65
2023/11/05 08:55:17;;;;;;;1.07;0.70;;;10.60;99.90;;;;;;5099458;28;20201;-65
2023/11/05 08:57:44;;;;;;;1.80;0.70;;;10.60;99.90;;;;;;5105905;28;20202;-65
2023/11/05 09:00:13;;;;;;;2.83;0.87;;;10.60;99.90;;;;;;5105353;28;20328;-66
2023/11/05 09:02:40;;;;;;;1.10;0.67;;;10.60;99.90;;;;;;5103053;28;20214;-66
2023/11/05 09:05:08;;;;;;;0.93;0.70;;;10.60;99.90;;;;;;5105178;28;20293;-65
2023/11/05 09:07:35;;;;;;;2.00;0.80;;;10.60;99.90;;;;;;5104543;28;20708;-65
2023/11/05 09:10:02;;;;;;;4.43;0.90;;;10.70;99.90;;;;;;5104918;28;20217;-65
2023/11/05 09:12:29;;;;;;;0.50;0.43;;;10.70;99.90;;;;;;5105159;28;20635;-65
2023/11/05 09:14:57;;;;;;;0.60;0.60;;;10.80;99.90;;;;;;5102996;28;20206;-65
2023/11/05 09:17:25;;;;;;;0.80;0.70;;;10.70;99.90;;;;;;5105737;28;20237;-64
2023/11/05 09:19:52;;;;;;;0.53;0.53;;;10.80;99.90;;;;;;5087418;28;20290;-65
2023/11/05 09:22:20;;;;;;;1.17;0.73;;;10.80;99.90;;;;;;5104227;28;20288;-65
2023/11/05 09:24:47;;;;;;;1.33;0.80;;;10.80;99.90;;;;;;5107924;28;20206;-65
2023/11/05 09:27:13;;;;;;;0.77;0.60;;;10.80;99.90;;;;;;5095738;28;20207;-65
2023/11/05 09:29:40;;;;;;;0.50;0.50;;;10.80;99.90;;;;;;5089946;28;20201;-65
2023/11/05 09:32:08;;;;;;;2.10;0.70;;;10.80;99.90;;;;;;5107402;28;20300;-65
2023/11/05 09:34:36;;;;;;;0.70;0.70;;;10.70;99.90;;;;;;5091504;28;20221;-66
2023/11/05 09:37:03;;;;;;;0.77;0.60;;;10.80;99.90;;;;;;5086426;28;20266;-65
2023/11/05 09:39:30;;;;;;;0.80;0.80;;;10.80;99.90;;;;;;5086370;28;20748;-66
2023/11/05 09:41:57;;;;;;;1.93;0.97;;;10.80;99.90;;;;;;5088423;28;20294;-66
2023/11/05 09:44:24;;;;;;;0.40;0.40;;;10.80;99.90;;;;;;5086975;28;20218;-66
2023/11/05 09:46:52;;;;;;;0.47;0.47;;;10.80;99.90;;;;;;5087111;28;20664;-66
2023/11/05 09:49:19;;;;;;;0.80;0.60;;;10.80;99.90;;;;;;5087034;28;20222;-66
2023/11/05 09:51:50;;;;;;;0.60;0.60;;;10.80;99.90;;;;;;5092560;28;20301;-66
2023/11/05 09:54:17;;;;;;;2.17;0.77;;;10.80;99.90;;;;;;5100788;28;20227;-66
2023/11/05 09:56:44;;;;;;;1.87;1.30;;;10.80;99.90;;;;;;5088352;28;20354;-66
2023/11/05 09:59:11;;;;;;;2.80;2.23;;;10.80;99.90;;;;;;5086418;28;20299;-66
2023/11/05 10:01:38;;;;;;;2.00;1.00;;;10.80;99.90;;;;;;5086068;28;20284;-66
2023/11/05 10:04:07;;;;;;;0.80;0.80;;;10.80;99.90;;;;;;5086589;28;20207;-66
2023/11/05 10:06:34;;;;;;;1.40;1.00;;;10.70;99.90;;;;;;5099187;28;20229;-66
2023/11/05 10:09:05;;;;;;;0.90;0.80;;;10.70;99.90;;;;;;5106239;28;20306;-66
2023/11/05 10:11:32;;;;;;;1.27;0.70;;;10.70;99.90;;;;;;5106190;28;20500;-66
2023/11/05 10:13:59;;;;;;;0.97;0.90;;;10.70;99.90;;;;;;5092457;28;20703;-66
2023/11/05 10:16:27;;;;;;;0.77;0.70;;;10.70;99.90;;;;;;5123457;27;20225;-66
2023/11/05 10:18:55;;;;;;;0.80;0.63;;;10.70;99.90;;;;;;5110704;27;20560;-66
2023/11/05 10:21:34;;;;;;;0.80;0.80;;;10.70;99.90;;;;;;5106289;28;20306;-66
2023/11/05 10:24:02;;;;;;;0.87;0.80;;;10.70;99.90;;;;;;5106424;28;20205;-66
2023/11/05 10:26:31;;;;;;;1.93;0.80;;;10.80;99.90;;;;;;5104474;28;20790;-66
2023/11/05 10:28:59;;;;;;;1.60;1.00;;;10.80;99.90;;;;;;5105500;28;20209;-66
2023/11/05 10:31:27;;;;;;;0.93;0.93;;;10.80;99.90;;;;;;5106494;27;20206;-66
2023/11/05 10:33:56;;;;;;;1.17;0.77;;;10.90;99.90;;;;;;5106984;28;20297;-66
2023/11/05 10:36:25;;;;;;;1.37;0.83;;;11.00;99.90;;;;;;5106980;28;20232;-66
2023/11/05 10:38:52;;;;;;;2.00;0.80;;;11.00;99.90;;;;;;5104171;28;20206;-66
2023/11/05 10:41:20;;;;;;;2.80;0.97;;;11.00;99.90;;;;;;5105822;28;20210;-66
2023/11/05 10:43:50;;;;;;;0.50;0.50;;;11.00;99.90;;;;;;5087423;28;20210;-66
2023/11/05 10:46:18;;;;;;;2.13;0.80;;;11.00;99.90;;;;;;5085592;28;20298;-66
2023/11/05 10:48:46;;;;;;;0.90;0.90;;;11.00;99.90;;;;;;5084837;28;20587;-66
2023/11/05 10:51:15;;;;;;;3.83;0.73;;;11.00;99.90;;;;;;5100740;28;20203;-66
2023/11/05 10:53:44;;;;;;;0.60;0.60;;;11.10;99.90;;;;;;5103116;28;20569;-66
2023/11/05 10:56:30;;;;;;;0.97;0.90;;;11.10;99.90;;;;;;5097604;28;20314;-66
2023/11/05 10:58:58;;;;;;;0.53;0.53;;;11.10;99.90;;;;;;5103625;28;20209;-66
2023/11/05 11:01:29;;;;;;;1.03;0.90;;;11.20;99.90;;;;;;5103653;28;20194;-66
2023/11/05 11:04:09;;;;;;;1.93;1.47;;;11.20;99.90;;;;;;5096140;27;20206;-66
2023/11/05 11:06:37;;;;;;;1.60;1.50;;;11.30;99.90;;;;;;5103115;28;20651;-66
2023/11/05 11:09:09;;;;;;;0.93;0.93;;;11.40;99.90;;;;;;5105202;28;21077;-66
2023/11/05 11:11:39;;;;;;;1.43;0.70;;;11.40;99.90;;;;;;5105430;28;20202;-66
2023/11/05 11:14:07;;;;;;;0.80;0.80;;;11.40;99.90;;;;;;5100310;28;20230;-66
2023/11/05 11:16:37;;;;;;;1.40;0.80;;;11.50;99.90;;;;;;5105631;27;20221;-66
2023/11/05 11:19:13;;;;;;;1.43;0.70;;;11.70;99.90;;;;;;5105465;28;20198;-66
2023/11/05 11:21:44;;;;;;;1.00;1.00;;;11.80;99.90;;;;;;5105248;28;20570;-66
2023/11/05 11:24:37;;;;;;;0.47;0.47;;;11.90;99.90;;;;;;5105420;28;20214;-66
2023/11/05 11:27:05;;;;;;;0.53;0.53;;;12.00;99.90;;;;;;5093931;28;20662;-66
2023/11/05 11:29:34;;;;;;;1.83;0.70;;;12.00;99.90;;;;;;5091811;28;20716;-66
2023/11/05 11:32:03;;;;;;;2.43;0.80;;;12.00;99.90;;;;;;5105023;28;21001;-66
2023/11/05 11:34:31;;;;;;;1.47;0.83;;;11.90;99.90;;;;;;5096619;28;20206;-66
2023/11/05 11:36:59;;;;;;;1.57;0.70;;;11.90;99.90;;;;;;5104887;28;20328;-66
2023/11/05 11:39:26;;;;;;;0.53;0.53;;;11.90;99.90;;;;;;5089551;28;20205;-66
2023/11/05 11:41:53;;;;;;;1.50;0.63;;;11.90;99.90;;;;;;5084572;28;20206;-66
2023/11/05 11:44:21;;;;;;;0.73;0.70;;;11.90;99.90;;;;;;5090215;28;20205;-66
2023/11/05 11:46:50;;;;;;;0.90;0.90;;;11.90;99.90;;;;;;5104881;28;20209;-66
2023/11/05 11:49:17;;;;;;;3.13;0.73;;;11.80;99.90;;;;;;5104365;28;20217;-66
2023/11/05 11:51:45;;;;;;;1.77;0.77;;;11.80;99.90;;;;;;5103523;28;20198;-66
2023/11/05 11:54:12;;;;;;;3.20;0.73;;;11.80;99.90;;;;;;5104695;28;20202;-66
2023/11/05 11:56:39;;;;;;;2.03;0.70;;;11.80;99.90;;;;;;5103899;28;20226;-66
2023/11/05 11:59:08;;;;;;;2.07;0.87;;;11.80;99.90;;;;;;5101767;28;20712;-66
2023/11/05 12:01:37;;;;;;;1.53;1.00;;;11.80;99.90;;;;;;5104177;28;20198;-66
2023/11/05 12:04:07;;;;;;;1.70;1.10;;;11.90;99.90;;;;;;5093422;28;20232;-66
2023/11/05 12:06:38;;;;;;;3.30;0.80;;;11.90;99.90;;;;;;5083764;28;20642;-67
2023/11/05 12:09:05;;;;;;;1.67;1.00;;;11.90;99.90;;;;;;5095540;28;20224;-66
2023/11/05 12:11:32;;;;;;;1.30;0.90;;;12.00;99.90;;;;;;5104214;28;20205;-66
2023/11/05 12:14:02;;;;;;;1.20;0.60;;;12.00;99.90;;;;;;5104099;28;20788;-66
2023/11/05 12:16:29;;;;;;;2.90;0.70;;;12.00;99.90;;;;;;5123464;27;20221;-66
2023/11/05 12:18:56;;;;;;;1.20;0.57;;;12.00;99.90;;;;;;5122744;27;21044;-66
2023/11/05 12:21:25;;;;;;;2.13;0.63;;;12.00;99.90;;;;;;5104505;28;20202;-66
2023/11/05 12:23:54;;;;;;;1.23;0.70;;;12.00;99.90;;;;;;5104122;28;20225;-66
2023/11/05 12:26:21;;;;;;;0.80;0.80;;;12.10;99.90;;;;;;5099752;28;20223;-66
2023/11/05 12:28:48;;;;;;;2.30;0.90;;;12.10;99.90;;;;;;5084126;28;20599;-66
2023/11/05 12:31:15;;;;;;;1.60;0.87;;;12.10;99.90;;;;;;5101578;28;20300;-66
2023/11/05 12:33:43;;;;;;;1.70;0.97;;;12.10;99.90;;;;;;5099626;28;20298;-66
2023/11/05 12:36:10;;;;;;;1.60;0.80;;;12.10;99.90;;;;;;5100711;28;20418;-66
2023/11/05 12:38:39;;;;;;;1.03;0.60;;;12.10;99.90;;;;;;5105140;28;20233;-66
2023/11/05 12:41:06;;;;;;;0.83;0.70;;;12.20;99.90;;;;;;5094720;28;20269;-65
2023/11/05 12:43:33;;;;;;;1.43;1.30;;;12.20;99.90;;;;;;5084536;28;20293;-65
2023/11/05 12:46:00;;;;;;;5.87;3.07;;;12.20;99.90;;;;;;5088100;28;20198;-65
2023/11/05 12:48:27;;;;;;;2.63;0.80;;;12.20;99.90;;;;;;5105012;28;20328;-65
2023/11/05 12:50:54;;;;;;;0.80;0.73;;;12.20;99.90;;;;;;5104815;28;20216;-66
2023/11/05 12:53:22;;;;;;;0.97;0.70;;;12.30;99.90;;;;;;5104141;28;20210;-65